Time;durP1;ratioP1;P1;durP2;ratioP2;P2;SDS_P1;SDS_P2;PMS_P1;PMS_P2;Temp;Humidity;BMP_temperature;BMP_pressure;BME280_temperature;BME280_humidity;BME280_pressure;Samples;Min_cycle;Max_cycle;Signal;HPM_P1;HPM_P2
2021/07/04 00:00:12;;;;;;;;;46.25;39.00;;;;;26.00;50.00;100384.66;4931011;28;45311;-71
2021/07/04 00:02:37;;;;;;;;;57.75;45.50;;;;;25.97;49.64;100383.00;4954739;28;45358;-71
2021/07/04 00:05:07;;;;;;;;;23.75;21.50;;;;;25.94;49.12;100383.22;4944437;28;45557;-71
2021/07/04 00:07:33;;;;;;;;;29.75;28.00;;;;;25.92;49.76;100382.44;4955609;28;45322;-71
2021/07/04 00:09:58;;;;;;;;;30.25;28.50;;;;;25.88;49.86;100378.22;4958271;28;48065;-71
2021/07/04 00:12:23;;;;;;;;;24.00;21.50;;;;;25.89;50.02;100367.47;4942695;28;54054;-71
2021/07/04 00:14:49;;;;;;;;;24.50;23.00;;;;;25.89;50.24;100380.84;4944527;28;60172;-71
2021/07/04 00:17:14;;;;;;;;;22.25;19.75;;;;;25.91;50.23;100375.38;4951947;28;46374;-70
2021/07/04 00:19:42;;;;;;;;;28.00;28.00;;;;;25.91;50.13;100375.38;4936172;28;53556;-70
2021/07/04 00:22:07;;;;;;;;;29.00;25.50;;;;;25.93;49.40;100381.50;4977164;28;45549;-70
2021/07/04 00:24:33;;;;;;;;;16.00;16.00;;;;;25.93;49.98;100374.34;4940980;28;45393;-70
2021/07/04 00:26:58;;;;;;;;;30.75;28.25;;;;;25.96;49.84;100372.41;4936889;28;60692;-70
2021/07/04 00:29:24;;;;;;;;;62.25;51.00;;;;;25.94;49.94;100359.16;4955520;28;45416;-70
2021/07/04 00:31:49;;;;;;;;;22.25;18.75;;;;;25.91;49.82;100349.50;4947514;28;50398;-70
2021/07/04 00:34:14;;;;;;;;;61.75;49.50;;;;;25.88;49.62;100354.16;4957999;28;55224;-70
2021/07/04 00:36:40;;;;;;;;;28.25;28.25;;;;;25.84;49.74;100349.97;4947545;28;48139;-70
2021/07/04 00:39:05;;;;;;;;;57.75;45.25;;;;;25.82;50.07;100350.06;4954558;28;68643;-70
2021/07/04 00:41:31;;;;;;;;;28.00;27.50;;;;;25.78;49.99;100342.31;4917727;28;54945;-70
2021/07/04 00:43:56;;;;;;;;;54.75;44.75;;;;;25.75;50.04;100343.34;4947403;28;46058;-70
2021/07/04 00:46:21;;;;;;;;;28.00;27.25;;;;;25.76;50.12;100342.41;4941924;28;60508;-70
2021/07/04 00:48:47;;;;;;;;;42.00;35.00;;;;;25.74;50.46;100352.34;4952073;28;45281;-70
2021/07/04 00:51:12;;;;;;;;;33.25;28.50;;;;;25.73;50.32;100347.94;4953786;28;59688;-70
2021/07/04 00:53:38;;;;;;;;;23.25;21.75;;;;;25.70;50.16;100349.88;4932775;28;54898;-71
2021/07/04 00:56:04;;;;;;;;;23.25;20.50;;;;;25.68;50.09;100341.09;4955755;28;45344;-70
2021/07/04 00:58:31;;;;;;;;;18.25;17.75;;;;;25.67;50.06;100337.56;4947556;28;45377;-70
2021/07/04 01:00:56;;;;;;;;;22.75;19.25;;;;;25.65;50.31;100340.34;4954149;28;45315;-71
2021/07/04 01:03:21;;;;;;;;;22.25;22.00;;;;;25.63;50.42;100338.72;4961814;28;45387;-70
2021/07/04 01:05:47;;;;;;;;;20.75;17.50;;;;;25.61;49.93;100340.59;4954976;28;64223;-71
2021/07/04 01:08:12;;;;;;;;;16.00;15.00;;;;;25.58;50.09;100338.97;4954291;28;45555;-71
2021/07/04 01:10:38;;;;;;;;;14.00;12.00;;;;;25.57;50.36;100334.59;4948287;28;45664;-71
2021/07/04 01:13:04;;;;;;;;;16.75;16.50;;;;;25.55;50.34;100324.97;4958213;28;45570;-71
2021/07/04 01:15:37;;;;;;;;;18.00;16.00;;;;;25.55;50.53;100333.84;4968402;28;45401;-71
2021/07/04 01:18:05;;;;;;;;;15.75;15.00;;;;;25.55;50.93;100330.31;4940445;28;45334;-71
2021/07/04 01:20:31;;;;;;;;;14.50;14.50;;;;;25.56;50.61;100322.19;4943711;28;45402;-71
2021/07/04 01:23:06;;;;;;;;;14.75;12.50;;;;;25.62;50.70;100324.47;4945263;28;45448;-71
2021/07/04 01:25:33;;;;;;;;;13.00;12.00;;;;;25.61;50.62;100328.09;4958442;28;45439;-71
2021/07/04 01:27:59;;;;;;;;;12.00;12.00;;;;;25.59;50.65;100324.66;4945301;28;45584;-71
2021/07/04 01:30:24;;;;;;;;;16.25;15.00;;;;;25.59;50.65;100331.81;4951553;28;45347;-71
2021/07/04 01:32:50;;;;;;;;;11.75;11.75;;;;;25.63;50.98;100323.53;4945249;28;45315;-71
2021/07/04 01:35:15;;;;;;;;;14.50;12.50;;;;;25.66;50.72;100333.19;4943428;28;47126;-71
2021/07/04 01:37:41;;;;;;;;;12.00;12.00;;;;;25.63;50.83;100326.22;4945208;28;45271;-71
2021/07/04 01:40:07;;;;;;;;;12.00;12.00;;;;;25.70;50.63;100332.03;4960806;28;60423;-71
2021/07/04 01:42:33;;;;;;;;;11.75;11.25;;;;;25.73;50.70;100329.22;4960053;28;45485;-71
2021/07/04 01:44:58;;;;;;;;;13.00;11.75;;;;;25.66;50.89;100319.81;4951536;28;46130;-71
2021/07/04 01:47:23;;;;;;;;;12.00;12.00;;;;;25.71;50.88;100320.41;4953669;28;45390;-71
2021/07/04 01:49:49;;;;;;;;;13.50;12.75;;;;;25.74;51.17;100319.41;4953766;28;45383;-72
2021/07/04 01:52:14;;;;;;;;;12.50;12.00;;;;;25.74;50.96;100320.25;4942644;28;65280;-72
2021/07/04 01:54:40;;;;;;;;;14.50;12.00;;;;;25.74;50.71;100320.25;4957649;28;47019;-71
2021/07/04 01:57:11;;;;;;;;;13.50;13.00;;;;;25.74;50.59;100325.59;4949711;28;45502;-71
2021/07/04 01:59:44;;;;;;;;;16.00;12.50;;;;;25.70;50.67;100321.34;4957113;28;45332;-71
2021/07/04 02:02:09;;;;;;;;;14.75;12.75;;;;;25.66;51.16;100311.81;4947720;28;45439;-71
2021/07/04 02:04:39;;;;;;;;;14.50;14.00;;;;;25.65;50.73;100310.94;4958435;28;46609;-71
2021/07/04 02:07:05;;;;;;;;;10.25;10.25;;;;;25.63;50.51;100317.34;4962176;28;45399;-71
2021/07/04 02:09:30;;;;;;;;;11.50;11.25;;;;;25.61;51.36;100314.75;4947359;28;45457;-71
2021/07/04 02:11:56;;;;;;;;;13.75;12.00;;;;;25.61;51.07;100309.38;4959447;28;45453;-71
2021/07/04 02:14:21;;;;;;;;;13.50;13.00;;;;;25.54;50.73;100308.06;4962633;28;68206;-71
2021/07/04 02:16:46;;;;;;;;;15.75;15.75;;;;;25.50;50.98;100313.66;4947799;28;45301;-71
2021/07/04 02:19:12;;;;;;;;;12.75;12.25;;;;;25.45;51.17;100315.75;4961654;28;52913;-71
2021/07/04 02:21:37;;;;;;;;;10.00;9.25;;;;;25.43;50.75;100318.50;4958452;28;59700;-71
2021/07/04 02:24:03;;;;;;;;;12.25;11.50;;;;;25.41;51.39;100311.53;4957792;28;65417;-71
2021/07/04 02:26:28;;;;;;;;;10.50;10.50;;;;;25.42;51.07;100315.94;4956340;28;45423;-71
2021/07/04 02:28:53;;;;;;;;;12.25;11.00;;;;;25.34;51.03;100309.22;4943617;28;65796;-71
2021/07/04 02:31:19;;;;;;;;;14.00;13.00;;;;;25.34;51.68;100303.03;4966490;28;45551;-71
2021/07/04 02:33:44;;;;;;;;;13.25;12.00;;;;;25.30;51.78;100294.34;4948597;28;51237;-72
2021/07/04 02:36:09;;;;;;;;;13.25;13.00;;;;;25.38;51.72;100301.06;4957322;28;45191;-71
2021/07/04 02:38:35;;;;;;;;;14.00;10.50;;;;;25.35;51.50;100296.72;4957056;28;48061;-71
2021/07/04 02:41:00;;;;;;;;;10.50;9.50;;;;;25.33;51.22;100302.16;4967624;28;49027;-71
2021/07/04 02:43:26;;;;;;;;;10.00;9.75;;;;;25.31;51.10;100301.41;4950205;28;47443;-71
2021/07/04 02:45:51;;;;;;;;;11.00;10.75;;;;;25.31;51.80;100296.06;4962685;28;45284;-71
2021/07/04 02:48:17;;;;;;;;;14.00;10.50;;;;;25.31;51.25;100296.06;4951376;28;45290;-71
2021/07/04 02:50:42;;;;;;;;;12.50;12.50;;;;;25.31;51.42;100303.22;4958216;28;45327;-71
2021/07/04 02:53:09;;;;;;;;;12.75;12.75;;;;;25.30;51.14;100299.69;4960103;28;46288;-71
2021/07/04 02:55:35;;;;;;;;;12.00;11.00;;;;;25.33;51.71;100301.31;4955163;28;45358;-71
2021/07/04 02:58:00;;;;;;;;;11.75;11.00;;;;;25.31;51.53;100300.53;4943722;28;45498;-71
2021/07/04 03:00:26;;;;;;;;;12.00;12.00;;;;;25.31;51.53;100301.41;4951711;28;50713;-70
2021/07/04 03:02:52;;;;;;;;;13.00;12.00;;;;;25.31;51.54;100301.41;4946817;28;45366;-70
2021/07/04 03:05:17;;;;;;;;;12.00;12.00;;;;;25.34;52.01;100295.88;4927338;28;45443;-70
2021/07/04 03:07:43;;;;;;;;;13.00;12.00;;;;;25.35;51.46;100292.25;4945108;28;45278;-70
2021/07/04 03:10:11;;;;;;;;;11.50;10.25;;;;;25.33;51.48;100299.50;4925821;28;45505;-70
2021/07/04 03:12:36;;;;;;;;;11.75;11.75;;;;;25.30;51.67;100290.81;4956715;28;48849;-70
2021/07/04 03:15:03;;;;;;;;;14.75;13.00;;;;;25.35;51.37;100292.25;4961688;28;45274;-70
2021/07/04 03:17:28;;;;;;;;;14.75;14.75;;;;;25.35;51.71;100288.72;4943723;28;45361;-70
2021/07/04 03:19:54;;;;;;;;;12.50;12.00;;;;;25.35;51.49;100286.91;4942806;28;61203;-70
2021/07/04 03:22:19;;;;;;;;;13.75;12.00;;;;;25.31;51.54;100273.84;4943699;28;47325;-70
2021/07/04 03:24:45;;;;;;;;;11.25;11.00;;;;;25.27;51.35;100274.94;4953629;28;45481;-70
2021/07/04 03:27:10;;;;;;;;;17.25;16.25;;;;;25.24;51.61;100269.78;4956631;28;45450;-70
2021/07/04 03:29:36;;;;;;;;;15.00;15.00;;;;;25.18;51.71;100257.66;4953786;28;62231;-70
2021/07/04 03:32:03;;;;;;;;;14.50;14.25;;;;;25.15;51.77;100268.53;4970950;28;47351;-70
2021/07/04 03:34:28;;;;;;;;;12.75;12.75;;;;;25.16;51.76;100267.56;4943629;28;45310;-70
2021/07/04 03:36:54;;;;;;;;;11.75;11.50;;;;;25.14;51.43;100271.28;4948413;28;49862;-70
2021/07/04 03:39:19;;;;;;;;;12.25;10.75;;;;;25.14;52.09;100293.50;4969711;28;45575;-70
2021/07/04 03:41:45;;;;;;;;;12.75;11.00;;;;;25.13;51.96;100286.47;4951311;28;47570;-70
2021/07/04 03:44:10;;;;;;;;;9.00;8.75;;;;;25.12;51.94;100295.41;4959182;28;46311;-70
2021/07/04 03:46:36;;;;;;;;;8.50;8.00;;;;;25.05;51.95;100300.25;4959002;28;48124;-71
2021/07/04 03:49:01;;;;;;;;;10.25;9.25;;;;;25.06;52.41;100299.28;4943852;28;53739;-70
2021/07/04 03:51:27;;;;;;;;;13.50;12.00;;;;;25.04;51.82;100289.66;4954922;28;46102;-70
2021/07/04 03:53:52;;;;;;;;;8.50;8.50;;;;;25.00;52.32;100290.75;4950856;28;52245;-70
2021/07/04 03:56:18;;;;;;;;;11.25;10.25;;;;;24.97;52.33;100285.59;4959295;28;45349;-70
2021/07/04 03:58:44;;;;;;;;;8.75;8.75;;;;;24.95;52.23;100288.34;4949343;28;45507;-70
2021/07/04 04:01:17;;;;;;;;;8.75;8.25;;;;;24.91;52.88;100284.13;4958609;28;51610;-70
2021/07/04 04:03:42;;;;;;;;;10.25;9.50;;;;;24.92;52.76;100285.84;4944419;28;45575;-70
2021/07/04 04:06:08;;;;;;;;;8.00;7.00;;;;;24.94;53.29;100286.63;4952486;28;49739;-70
2021/07/04 04:08:33;;;;;;;;;9.25;9.25;;;;;24.95;52.87;100282.16;4959536;28;56302;-70
2021/07/04 04:10:59;;;;;;;;;11.50;11.00;;;;;24.96;52.40;100276.72;4946462;28;68309;-70
2021/07/04 04:13:24;;;;;;;;;12.00;9.25;;;;;24.98;52.46;100288.16;4953782;28;45356;-70
2021/07/04 04:15:49;;;;;;;;;8.25;8.25;;;;;24.98;53.14;100287.31;4934712;28;56685;-70
2021/07/04 04:18:15;;;;;;;;;10.50;10.50;;;;;24.99;52.79;100287.22;4941827;28;61148;-70
2021/07/04 04:20:40;;;;;;;;;12.25;12.00;;;;;25.02;52.96;100284.41;4919273;28;47263;-70
2021/07/04 04:23:06;;;;;;;;;7.75;7.75;;;;;24.99;52.54;100287.22;4954451;28;50818;-70
2021/07/04 04:25:31;;;;;;;;;9.00;9.00;;;;;24.99;53.01;100283.69;4967841;28;57625;-70
2021/07/04 04:27:56;;;;;;;;;11.50;11.50;;;;;24.97;52.75;100278.44;4948895;28;45357;-70
2021/07/04 04:30:22;;;;;;;;;8.75;8.75;;;;;24.94;52.57;100283.97;4954440;28;53979;-70
2021/07/04 04:32:47;;;;;;;;;10.50;9.00;;;;;24.84;52.92;100273.88;4949942;28;61324;-70
2021/07/04 04:35:13;;;;;;;;;8.50;7.75;;;;;24.80;53.10;100262.53;4947624;28;45806;-70
2021/07/04 04:37:38;;;;;;;;;10.00;9.00;;;;;24.81;53.04;100266.91;4955381;28;45631;-70
2021/07/04 04:40:05;;;;;;;;;10.25;9.00;;;;;24.78;53.04;100265.28;4955337;28;53125;-70
2021/07/04 04:42:30;;;;;;;;;8.25;7.75;;;;;24.78;52.76;100254.63;4939558;28;45323;-70
2021/07/04 04:44:56;;;;;;;;;10.75;9.00;;;;;24.75;53.51;100260.09;4968503;28;45430;-71
2021/07/04 04:47:21;;;;;;;;;10.75;9.50;;;;;24.75;52.97;100267.25;4926977;28;56803;-71
2021/07/04 04:49:47;;;;;;;;;11.00;9.75;;;;;24.73;52.91;100263.81;4968851;28;59811;-71
2021/07/04 04:52:12;;;;;;;;;10.00;9.25;;;;;24.69;53.36;100259.63;4934878;28;45378;-71
2021/07/04 04:54:37;;;;;;;;;8.00;7.25;;;;;24.69;52.97;100264.97;4961647;28;45746;-70
2021/07/04 04:57:06;;;;;;;;;8.50;8.50;;;;;24.64;53.49;100259.88;4954747;28;45459;-71
2021/07/04 04:59:33;;;;;;;;;10.00;10.00;;;;;24.70;53.21;100272.88;4960326;28;45454;-70
2021/07/04 05:01:58;;;;;;;;;9.50;8.75;;;;;24.73;53.63;100278.03;4946878;28;45318;-71
2021/07/04 05:04:24;;;;;;;;;9.50;9.00;;;;;24.79;53.33;100272.34;4957568;28;55498;-71
2021/07/04 05:06:49;;;;;;;;;9.25;9.00;;;;;24.85;53.42;100264.91;4947770;28;52840;-70
2021/07/04 05:09:14;;;;;;;;;11.50;9.75;;;;;24.83;53.34;100273.03;4955810;28;47239;-72
2021/07/04 05:11:40;;;;;;;;;10.50;8.50;;;;;24.87;52.96;100273.72;4946091;28;45517;-70
2021/07/04 05:14:06;;;;;;;;;9.50;9.50;;;;;24.90;53.50;100273.53;4942408;28;45427;-71
2021/07/04 05:16:31;;;;;;;;;9.75;8.75;;;;;24.95;53.58;100272.34;4943802;28;45879;-70
2021/07/04 05:19:05;;;;;;;;;9.50;9.00;;;;;24.99;53.41;100283.69;4960851;28;65046;-71
2021/07/04 05:21:31;;;;;;;;;7.50;7.50;;;;;25.01;52.76;100284.44;4941048;28;45584;-71
2021/07/04 05:23:57;;;;;;;;;8.00;7.75;;;;;24.99;52.61;100289.03;4959511;28;45238;-71
2021/07/04 05:26:22;;;;;;;;;10.50;9.00;;;;;24.96;53.15;100289.22;4954150;28;55708;-70
2021/07/04 05:28:47;;;;;;;;;10.25;8.00;;;;;24.94;53.05;100280.44;4945054;28;52895;-70
2021/07/04 05:31:13;;;;;;;;;8.00;8.00;;;;;24.94;52.57;100283.97;4944933;28;45399;-71
2021/07/04 05:33:38;;;;;;;;;7.00;7.00;;;;;24.92;52.75;100282.31;4936404;28;57888;-70
2021/07/04 05:36:04;;;;;;;;;10.00;9.00;;;;;24.88;52.83;100278.97;4948820;28;62884;-71
2021/07/04 05:38:33;;;;;;;;;9.00;9.00;;;;;24.84;52.61;100274.75;4929835;28;48464;-70
2021/07/04 05:40:58;;;;;;;;;10.25;7.75;;;;;24.85;53.22;100270.25;4933577;28;45319;-72
2021/07/04 05:43:24;;;;;;;;;13.00;10.75;;;;;24.81;52.87;100270.44;4960401;28;45462;-71
2021/07/04 05:45:50;;;;;;;;;9.25;8.25;;;;;24.79;53.23;100266.16;4957747;28;61072;-71
2021/07/04 05:48:15;;;;;;;;;7.75;7.75;;;;;24.77;53.26;100266.25;4944984;28;48268;-71
2021/07/04 05:50:41;;;;;;;;;9.75;9.00;;;;;24.81;53.03;100269.59;4955691;28;45625;-71
2021/07/04 05:53:06;;;;;;;;;13.50;12.00;;;;;24.81;53.18;100265.09;4945008;28;47593;-71
2021/07/04 05:55:31;;;;;;;;;9.75;8.00;;;;;24.80;53.59;100274.06;4951163;28;45760;-72
2021/07/04 05:57:57;;;;;;;;;10.25;10.25;;;;;24.89;53.34;100263.81;4954783;28;45366;-70
2021/07/04 06:00:26;;;;;;;;;10.00;9.00;;;;;24.97;52.95;100266.91;4948357;28;45342;-71
2021/07/04 06:02:51;;;;;;;;;10.75;9.25;;;;;25.04;53.08;100271.84;4951153;28;45409;-73
2021/07/04 06:05:17;;;;;;;;;8.00;7.00;;;;;25.15;52.84;100273.00;4957429;28;45449;-69
2021/07/04 06:07:43;;;;;;;;;6.00;6.00;;;;;25.21;52.93;100272.66;4950582;28;48117;-72
2021/07/04 06:10:09;;;;;;;;;8.00;6.00;;;;;25.24;52.65;100276.00;4944798;28;45213;-70
2021/07/04 06:12:35;;;;;;;;;5.00;4.75;;;;;25.31;52.12;100277.34;4935438;28;45436;-71
2021/07/04 06:15:00;;;;;;;;;5.00;5.00;;;;;25.38;52.25;100282.34;4928523;28;45361;-72
2021/07/04 06:17:26;;;;;;;;;4.25;4.25;;;;;25.39;52.16;100276.06;4959822;28;47489;-72
2021/07/04 06:19:51;;;;;;;;;6.50;4.75;;;;;25.43;51.85;100278.44;4957428;28;49293;-74
2021/07/04 06:22:16;;;;;;;;;4.25;3.25;;;;;25.42;51.97;100278.53;4958417;28;50544;-72
2021/07/04 06:24:42;;;;;;;;;6.00;5.00;;;;;25.43;51.66;100277.56;4938179;28;50768;-71
2021/07/04 06:27:07;;;;;;;;;6.00;6.00;;;;;25.40;51.98;100283.09;4955268;28;66994;-74
2021/07/04 06:29:32;;;;;;;;;4.50;4.50;;;;;25.37;51.55;100273.47;4948328;28;53219;-76
2021/07/04 06:31:58;;;;;;;;;3.50;3.50;;;;;25.39;51.46;100260.03;4955180;28;47134;-75
2021/07/04 06:34:23;;;;;;;;;4.50;3.00;;;;;25.38;51.25;100261.84;4946616;28;55493;-76
2021/07/04 06:36:49;;;;;;;;;5.00;5.00;;;;;25.42;52.00;100274.03;4939115;28;52759;-75
2021/07/04 06:39:14;;;;;;;;;7.25;5.75;;;;;25.27;51.97;100261.59;4914123;28;56389;-76
2021/07/04 06:41:39;;;;;;;;;6.75;6.00;;;;;25.26;52.42;100254.53;4935897;28;45769;-75
2021/07/04 06:44:05;;;;;;;;;4.75;4.50;;;;;25.31;52.10;100266.69;4940711;28;45367;-71
2021/07/04 06:46:31;;;;;;;;;7.00;6.00;;;;;25.28;52.22;100266.88;4959975;28;45351;-70
2021/07/04 06:48:57;;;;;;;;;5.25;5.25;;;;;25.29;52.26;100270.41;4956346;28;45369;-72
2021/07/04 06:51:22;;;;;;;;;7.00;5.75;;;;;25.26;52.07;100262.53;4957228;28;45531;-70
2021/07/04 06:53:48;;;;;;;;;6.00;6.00;;;;;25.27;52.72;100265.13;4956925;28;56634;-71
2021/07/04 06:56:36;;;;;;;;;6.25;6.25;;;;;25.34;51.76;100261.13;4967912;28;47896;-72
2021/07/04 06:59:01;;;;;;;;;3.00;3.00;;;;;25.44;51.12;100260.59;4945552;28;45338;-73
2021/07/04 07:01:27;;;;;;;;;4.00;3.50;;;;;25.38;50.45;100264.50;4945739;28;45243;-74
2021/07/04 07:03:52;;;;;;;;;4.00;4.00;;;;;25.29;50.60;100265.06;4949848;28;50362;-74
2021/07/04 07:06:18;;;;;;;;;3.00;3.00;;;;;25.19;50.48;100259.38;4940012;28;45950;-75
2021/07/04 07:08:43;;;;;;;;;6.25;3.50;;;;;25.13;50.22;100264.22;4932912;28;45516;-76
2021/07/04 07:11:09;;;;;;;;;3.75;3.50;;;;;25.08;51.14;100267.16;4931982;28;45413;-74
2021/07/04 07:13:37;;;;;;;;;4.25;3.25;;;;;24.94;50.74;100259.94;4930126;28;45572;-78
2021/07/04 07:16:03;;;;;;;;;3.50;3.50;;;;;24.91;50.53;100270.78;4926513;28;47164;-78
2021/07/04 07:18:31;;;;;;;;;3.50;2.50;;;;;24.80;51.14;100266.06;4951809;28;45273;-79
2021/07/04 07:20:56;;;;;;;;;4.00;4.00;;;;;24.67;51.26;100245.47;4951219;28;45340;-81
2021/07/04 07:23:25;;;;;;;;;3.00;3.00;;;;;24.69;51.52;100254.28;4956525;28;45457;-78
2021/07/04 07:25:51;;;;;;;;;4.00;4.00;;;;;24.73;51.43;100263.81;4950555;28;45591;-78
2021/07/04 07:28:17;;;;;;;;;3.00;3.00;;;;;24.70;51.58;100267.53;4933038;28;45811;-78
2021/07/04 07:30:42;;;;;;;;;3.25;3.00;;;;;24.62;51.45;100269.78;4955667;28;45630;-77
2021/07/04 07:33:08;;;;;;;;;4.00;4.00;;;;;24.56;51.48;100269.25;4950045;28;45415;-81
2021/07/04 07:35:33;;;;;;;;;6.25;3.25;;;;;24.56;51.56;100280.78;4961667;28;45480;-80
2021/07/04 07:38:05;;;;;;;;;7.50;4.00;;;;;24.49;51.85;100269.59;4951237;28;45311;-82
2021/07/04 07:40:31;;;;;;;;;4.75;4.75;;;;;24.59;52.02;100291.31;4957309;28;45387;-82
2021/07/04 07:43:04;;;;;;;;;6.25;5.75;;;;;24.50;52.20;100271.34;4942573;28;45465;-83
2021/07/04 07:45:30;;;;;;;;;4.25;4.25;;;;;24.58;52.19;100286.88;4941587;28;48018;-82
2021/07/04 07:47:58;;;;;;;;;5.25;5.00;;;;;24.58;52.19;100289.56;4927028;28;45913;-82
2021/07/04 07:50:24;;;;;;;;;4.75;3.75;;;;;24.55;52.14;100284.41;4940116;28;45319;-83
2021/07/04 07:52:49;;;;;;;;;6.25;5.75;;;;;24.63;52.39;100295.50;4955907;28;45607;-82
2021/07/04 07:55:15;;;;;;;;;4.50;4.00;;;;;24.59;52.26;100288.63;4966098;28;45379;-83
2021/07/04 07:57:43;;;;;;;;;2.75;2.75;;;;;24.64;52.27;100291.88;4946189;28;45422;-83
2021/07/04 08:00:12;;;;;;;;;5.00;2.50;;;;;24.69;52.44;100299.66;4946308;28;45477;-81
2021/07/04 08:02:37;;;;;;;;;4.00;4.00;;;;;24.61;52.08;100280.53;4943137;28;45425;-82
2021/07/04 08:05:03;;;;;;;;;3.00;3.00;;;;;24.68;52.29;100295.25;4952063;28;46458;-83
2021/07/04 08:07:29;;;;;;;;;4.50;3.00;;;;;24.64;52.46;100283.88;4943979;28;45417;-83
2021/07/04 08:09:57;;;;;;;;;4.75;4.75;;;;;24.66;52.06;100295.31;4953273;28;45280;-83
2021/07/04 08:12:22;;;;;;;;;4.00;3.00;;;;;24.67;51.94;100288.19;4951249;28;45358;-84
2021/07/04 08:14:48;;;;;;;;;4.00;3.00;;;;;24.75;51.99;100288.59;4958792;28;45434;-83
2021/07/04 08:17:13;;;;;;;;;4.25;4.25;;;;;24.66;52.15;100260.63;4957701;28;45482;-84
2021/07/04 08:19:39;;;;;;;;;5.00;4.00;;;;;24.73;51.35;100262.00;4942751;28;45359;-83
2021/07/04 08:22:04;;;;;;;;;5.50;4.50;;;;;24.62;51.87;100242.22;4956381;28;45360;-82
2021/07/04 08:24:33;;;;;;;;;5.75;4.00;;;;;24.68;51.61;100242.75;4928473;28;45481;-82
2021/07/04 08:27:02;;;;;;;;;4.25;4.00;;;;;24.64;51.18;100219.84;4931021;28;45299;-83
2021/07/04 08:29:27;;;;;;;;;3.00;3.00;;;;;24.72;51.52;100241.63;4962457;28;45392;-82
2021/07/04 08:31:53;;;;;;;;;2.00;2.00;;;;;24.61;50.93;100232.50;4946259;28;45358;-81
2021/07/04 08:34:21;;;;;;;;;2.00;2.00;;;;;24.63;51.28;100234.13;4976495;28;47236;-83
2021/07/04 08:36:47;;;;;;;;;4.25;3.00;;;;;24.68;51.42;100247.22;4945964;28;45466;-82
2021/07/04 08:39:12;;;;;;;;;3.75;3.25;;;;;24.60;51.19;100239.66;4963722;28;45472;-82
2021/07/04 08:41:47;;;;;;;;;3.00;3.00;;;;;24.67;51.43;100262.38;4948642;28;45342;-82
2021/07/04 08:44:12;;;;;;;;;2.75;2.75;;;;;24.64;51.03;100246.53;4946170;28;48181;-82
2021/07/04 08:46:39;;;;;;;;;2.50;2.50;;;;;24.65;51.90;100250.06;4942350;28;45435;-82
2021/07/04 08:49:12;;;;;;;;;3.00;3.00;;;;;24.65;51.78;100245.56;4961966;28;45235;-82
2021/07/04 08:51:44;;;;;;;;;3.50;3.00;;;;;24.70;51.64;100246.19;4955827;28;45339;-83
2021/07/04 08:54:19;;;;;;;;;2.50;2.50;;;;;24.88;51.99;100268.28;4956153;28;46115;-81
2021/07/04 08:56:49;;;;;;;;;2.00;2.00;;;;;24.84;51.47;100255.19;4961763;28;45872;-80
2021/07/04 08:59:15;;;;;;;;;3.25;3.00;;;;;24.97;51.96;100267.75;4978210;28;45344;-81
2021/07/04 09:01:58;;;;;;;;;15.50;14.50;;;;;24.97;52.12;100253.53;4961477;28;45203;-82
2021/07/04 09:04:26;;;;;;;;;5.50;4.25;;;;;25.04;51.84;100247.78;4961481;28;46988;-81
2021/07/04 09:07:07;;;;;;;;;4.25;4.25;;;;;25.10;51.45;100238.53;4929803;28;45286;-81
2021/07/04 09:09:36;;;;;;;;;3.00;3.00;;;;;25.15;50.77;100240.97;4958803;28;45412;-81
2021/07/04 09:12:10;;;;;;;;;3.00;3.00;;;;;25.08;50.04;100235.97;4962169;28;45252;-82
2021/07/04 09:14:36;;;;;;;;;3.00;3.00;;;;;25.23;49.75;100254.72;4961660;28;46249;-81
2021/07/04 09:17:03;;;;;;;;;3.00;1.50;;;;;25.25;49.76;100253.66;4949978;28;45990;-82
2021/07/04 09:19:29;;;;;;;;;2.75;2.00;;;;;25.21;49.25;100237.94;4947678;28;45444;-83
2021/07/04 09:22:06;;;;;;;;;1.75;1.50;;;;;25.25;49.47;100248.34;4961324;28;45820;-81
2021/07/04 09:24:43;;;;;;;;;3.00;3.00;;;;;25.34;49.41;100250.44;4945766;28;47183;-81
2021/07/04 09:27:13;;;;;;;;;3.50;2.50;;;;;25.26;48.54;100239.34;4931262;28;45294;-82
2021/07/04 09:29:50;;;;;;;;;3.00;1.25;;;;;25.38;48.90;100247.63;4961629;28;45611;-82
2021/07/04 09:33:20;;;;;;;;;2.00;2.00;;;;;25.33;48.17;100224.69;4965437;28;45756;-82
2021/07/04 09:36:25;;;;;;;;;2.25;2.25;;;;;25.43;48.59;100246.38;4922310;28;45478;-82
2021/07/04 09:38:53;;;;;;;;;2.00;2.00;;;;;25.40;47.80;100225.19;4905548;28;45553;-82
2021/07/04 09:41:22;;;;;;;;;3.25;3.25;;;;;25.32;48.15;100204.28;4913510;28;45550;-81
2021/07/04 09:43:50;;;;;;;;;2.00;2.00;;;;;25.31;48.06;100209.72;4961159;28;45469;-81
2021/07/04 09:46:22;;;;;;;;;2.25;1.00;;;;;25.23;47.88;100207.50;4945182;28;46228;-82
2021/07/04 09:48:51;;;;;;;;;3.00;2.00;;;;;25.23;47.86;100204.84;4960949;28;45480;-82
2021/07/04 09:51:21;;;;;;;;;2.75;1.00;;;;;25.25;47.38;100221.63;4929275;28;45474;-83
2021/07/04 09:53:52;;;;;;;;;3.00;2.00;;;;;25.22;48.15;100216.47;4945772;28;45449;-82
2021/07/04 10:00:25;;;;;;;;;1.75;1.75;;;;;25.17;48.38;100220.34;4959624;28;45388;-83
2021/07/04 10:04:11;;;;;;;;;;;;;;;;;;;;;
2021/07/04 10:14:04;;;;;;;;;1.75;1.75;;;;;25.13;48.28;100186.78;4852534;29;45510;-82
2021/07/04 10:16:32;;;;;;;;;2.00;2.00;;;;;25.14;47.78;100197.38;4815438;29;45481;-82
2021/07/04 10:19:31;;;;;;;;;3.25;3.25;;;;;25.13;48.17;100197.47;4856654;29;45520;-75
2021/07/04 10:26:29;;;;;;;;;63.00;48.00;;;;;25.15;49.40;100198.22;4779825;29;45761;-88
2021/07/04 10:29:07;;;;;;;;;524.67;465.00;;;;;25.29;48.90;100195.59;4766352;29;45382;-85
2021/07/04 10:34:19;;;;;;;;;93.25;84.75;;;;;25.36;47.96;100194.25;4903025;29;46503;-79
2021/07/04 10:37:09;;;;;;;;;156.00;142.25;;;;;25.46;48.33;100200.78;4945387;28;45851;-80
2021/07/04 10:39:51;;;;;;;;;;;;;;;;;;;;;
2021/07/04 10:42:20;;;;;;;;;62.75;49.75;;;;;25.51;47.82;100201.34;4947104;28;71266;-84
2021/07/04 10:44:46;;;;;;;;;66.50;52.50;;;;;25.55;47.82;100191.34;4970424;28;47109;-82
2021/07/04 10:47:44;;;;;;;;;57.00;45.00;;;;;25.58;47.55;100193.81;4957790;28;45516;-83
2021/07/04 10:50:11;;;;;;;;;47.00;37.75;;;;;25.58;47.72;100186.66;4961655;28;45286;-82
2021/07/04 10:52:41;;;;;;;;;46.50;37.75;;;;;25.59;47.16;100188.38;4960544;28;45436;-82
2021/07/04 10:55:13;;;;;;;;;35.00;31.50;;;;;25.54;47.16;100190.47;4938359;28;47176;-91
2021/07/04 10:57:53;;;;;;;;;49.75;39.75;;;;;25.62;48.09;100208.69;4959230;28;45358;-81
2021/07/04 11:00:21;;;;;;;;;43.50;36.50;;;;;25.64;47.88;100204.13;4959049;28;45481;-77
2021/07/04 11:02:54;;;;;;;;;49.50;38.25;;;;;25.61;48.28;100197.13;4975971;28;45419;-80
2021/07/04 11:05:35;;;;;;;;;28.50;26.75;;;;;25.61;48.63;100193.63;4975860;28;45451;-79
2021/07/04 11:08:14;;;;;;;;;37.25;31.25;;;;;25.59;48.98;100190.19;4974326;28;45416;-85
2021/07/04 11:10:48;;;;;;;;;25.00;24.00;;;;;25.59;49.03;100183.03;4976638;28;45417;-77
2021/07/04 11:13:20;;;;;;;;;32.50;29.50;;;;;25.67;48.86;100187.91;4976569;28;45639;-77
2021/07/04 11:15:48;;;;;;;;;20.50;19.50;;;;;25.53;48.37;100162.00;4961642;28;46208;-73
2021/07/04 11:18:56;;;;;;;;;33.00;27.25;;;;;25.67;47.63;100169.19;4958882;28;45453;-73
2021/07/04 11:21:56;;;;;;;;;15.00;12.50;;;;;25.68;47.17;100175.38;4960566;28;45356;-75
2021/07/04 11:24:27;;;;;;;;;15.50;12.75;;;;;25.65;47.93;100149.72;4959599;28;45320;-75
2021/07/04 11:27:19;;;;;;;;;21.50;19.50;;;;;25.71;48.12;100162.72;4965347;28;46465;-75
2021/07/04 11:30:20;;;;;;;;;16.25;12.75;;;;;25.75;47.79;100164.25;4955294;28;45509;-77
2021/07/04 11:32:46;;;;;;;;;10.00;10.00;;;;;25.74;47.15;100161.69;4959246;28;45410;-75
2021/07/04 11:35:20;;;;;;;;;6.75;5.75;;;;;25.68;46.34;100143.31;4959458;28;45260;-76
2021/07/04 11:37:46;;;;;;;;;5.00;5.00;;;;;25.74;46.95;100153.66;4959571;28;46238;-78
2021/07/04 11:40:11;;;;;;;;;4.00;4.00;;;;;25.58;46.75;100127.88;4959451;28;45319;-76
2021/07/04 11:42:37;;;;;;;;;3.00;3.00;;;;;25.62;46.20;100134.72;4956411;28;45322;-76